createdAt,value
2018-04-23T00:01:44.231Z,99.99
2018-04-23T00:06:39.912Z,99.99
2018-04-23T00:11:40.974Z,99.99
2018-04-23T00:16:36.003Z,99.99
2018-04-23T00:21:36.049Z,99.99
2018-04-23T00:26:30.977Z,99.99
2018-04-23T00:31:26.770Z,99.99
2018-04-23T00:36:23.543Z,99.99
2018-04-23T00:41:19.194Z,99.99
2018-04-23T00:46:16.133Z,99.99
2018-04-23T00:51:11.953Z,99.99
2018-04-23T00:56:09.333Z,99.99
2018-04-23T01:01:07.146Z,99.99
2018-04-23T01:06:07.375Z,99.99
2018-04-23T01:11:03.064Z,99.99
2018-04-23T01:15:58.518Z,99.99
2018-04-23T01:20:58.057Z,99.99
2018-04-23T01:25:58.223Z,99.99
2018-04-23T01:30:53.842Z,99.99
2018-04-23T01:35:53.658Z,99.99
2018-04-23T01:40:53.826Z,99.99
2018-04-23T01:45:52.455Z,99.99
2018-04-23T01:50:51.733Z,99.99
2018-04-23T01:55:46.528Z,99.99
2018-04-23T02:00:42.820Z,99.99
2018-04-23T02:05:42.827Z,99.99
2018-04-23T02:10:39.073Z,99.99
2018-04-23T02:15:39.120Z,99.99
2018-04-23T02:20:38.133Z,99.99
2018-04-23T02:25:33.301Z,99.99
2018-04-23T02:30:29.171Z,99.99
2018-04-23T02:35:29.129Z,99.99
2018-04-23T02:40:24.239Z,99.99
2018-04-23T02:45:20.908Z,99.99
2018-04-23T02:50:16.974Z,99.99
2018-04-23T02:55:13.008Z,99.99
2018-04-23T03:00:13.677Z,99.99
2018-04-23T03:05:09.895Z,99.99
2018-04-23T03:10:09.304Z,99.99
2018-04-23T03:15:05.247Z,99.99
2018-04-23T03:20:00.618Z,99.99
2018-04-23T03:24:57.045Z,99.99
2018-04-23T03:29:54.031Z,99.99
2018-04-23T03:34:49.705Z,99.99
2018-04-23T03:39:45.694Z,99.99
2018-04-23T03:49:43.432Z,99.99
2018-04-23T03:54:43.855Z,99.99
2018-04-23T03:59:38.979Z,99.99
2018-04-23T04:04:36.217Z,99.99
2018-04-23T04:09:31.970Z,99.99
2018-04-23T04:14:31.851Z,99.99
2018-04-23T04:19:30.903Z,99.99
2018-04-23T04:24:31.582Z,99.99
2018-04-23T04:29:26.580Z,99.99
2018-04-23T04:34:22.406Z,99.99
2018-04-23T04:39:22.152Z,99.99
2018-04-23T04:44:21.490Z,99.99
2018-04-23T04:49:20.392Z,99.99
2018-04-23T04:54:20.561Z,99.99
2018-04-23T04:59:17.238Z,99.99
2018-04-23T05:04:13.087Z,99.99
2018-04-23T05:09:09.000Z,99.99
2018-04-23T05:14:08.660Z,99.99
2018-04-23T05:19:09.572Z,99.99
2018-04-23T05:24:04.180Z,99.99
2018-04-23T05:29:00.122Z,99.99
2018-04-23T05:33:57.174Z,99.99
2018-04-23T05:38:53.297Z,99.99
2018-04-23T05:43:49.168Z,99.99
2018-04-23T05:48:49.019Z,99.99
2018-04-23T05:53:48.259Z,99.99
2018-04-23T05:58:43.375Z,99.99
2018-04-23T06:03:39.173Z,99.99
2018-04-23T06:08:35.185Z,99.99
2018-04-23T06:13:32.043Z,99.99
2018-04-23T06:18:31.467Z,99.99
2018-04-23T06:23:26.752Z,99.99
2018-04-23T06:28:22.900Z,99.99
2018-04-23T06:33:19.091Z,99.99
2018-04-23T06:38:15.112Z,99.99
2018-04-23T06:43:12.376Z,99.99
2018-04-23T06:48:11.996Z,99.99
2018-04-23T06:53:11.735Z,99.99
2018-04-23T06:58:07.255Z,99.99
2018-04-23T07:03:03.115Z,99.99
2018-04-23T07:07:58.897Z,99.99
2018-04-23T07:12:56.859Z,99.99
2018-04-23T07:17:53.517Z,99.99
2018-04-23T07:22:50.538Z,99.99
2018-04-23T07:27:47.452Z,99.99
2018-04-23T07:32:43.726Z,99.99
2018-04-23T07:37:40.318Z,99.99
2018-04-23T07:42:36.679Z,99.99
2018-04-23T07:47:33.154Z,99.99
2018-04-23T07:52:29.038Z,99.99
2018-04-23T07:57:28.492Z,99.99
2018-04-23T08:02:23.833Z,99.99
2018-04-23T08:07:21.166Z,99.25
2018-04-23T08:12:22.716Z,92.09
2018-04-23T08:17:18.671Z,86.36
2018-04-23T08:22:15.453Z,85.98
2018-04-23T08:27:11.748Z,86.52
2018-04-23T08:32:07.446Z,87.09
2018-04-23T08:37:03.010Z,87.62
2018-04-23T08:42:01.910Z,88.21
2018-04-23T08:46:56.131Z,90.99
2018-04-23T08:51:51.487Z,91.62
2018-04-23T08:56:51.104Z,92.24
2018-04-23T09:01:47.710Z,91.86
2018-04-23T09:06:43.393Z,89.60
2018-04-23T09:11:40.835Z,86.47
2018-04-23T09:16:38.269Z,85.47
2018-04-23T09:21:33.807Z,87.01
2018-04-23T09:26:31.182Z,82.34
2018-04-23T09:31:30.923Z,81.19
2018-04-23T09:36:25.786Z,80.71
2018-04-23T09:41:22.247Z,77.51
2018-04-23T09:46:18.083Z,78.40
2018-04-23T09:51:16.003Z,73.19
2018-04-23T09:56:13.101Z,70.62
2018-04-23T10:01:10.747Z,67.61
2018-04-23T10:06:08.791Z,63.50
2018-04-23T10:11:05.905Z,63.92
2018-04-23T10:16:02.088Z,62.41
2018-04-23T10:21:01.986Z,62.45
2018-04-23T10:25:59.193Z,62.66
2018-04-23T10:30:56.599Z,61.35
2018-04-23T10:35:55.825Z,60.61
2018-04-23T10:40:50.153Z,62.41
2018-04-23T10:45:43.869Z,66.20
2018-04-23T10:50:42.877Z,66.84
2018-04-23T10:55:38.854Z,62.06
2018-04-23T11:00:40.327Z,60.42
2018-04-23T11:05:37.100Z,63.25
2018-04-23T11:10:34.229Z,63.41
2018-04-23T11:15:31.762Z,62.28
2018-04-23T11:20:32.588Z,60.45
2018-04-23T11:25:28.668Z,55.54
2018-04-23T11:30:29.497Z,54.94
2018-04-23T11:35:30.141Z,54.98
2018-04-23T11:40:26.277Z,53.63
2018-04-23T11:45:27.014Z,52.91
2018-04-23T11:50:23.870Z,54.17
2018-04-23T12:00:25.696Z,53.33
2018-04-23T12:05:25.289Z,50.01
2018-04-23T12:10:21.319Z,52.11
2018-04-23T12:15:16.302Z,55.92
2018-04-23T12:20:09.503Z,56.04
2018-04-23T12:25:04.277Z,56.52
2018-04-23T12:30:03.301Z,55.22
2018-04-23T12:35:03.098Z,57.12
2018-04-23T12:40:02.567Z,54.54
2018-04-23T12:44:58.446Z,55.02
2018-04-23T12:49:54.771Z,60.36
2018-04-23T12:54:49.737Z,58.92
2018-04-23T12:59:46.631Z,60.91
2018-04-23T13:04:43.022Z,61.16
2018-04-23T13:09:42.165Z,61.84
2018-04-23T13:14:37.159Z,62.32
2018-04-23T13:19:37.543Z,60.30
2018-04-23T13:24:36.344Z,58.95
2018-04-23T13:29:31.135Z,61.94
2018-04-23T13:34:27.128Z,60.49
2018-04-23T13:39:23.252Z,60.78
2018-04-23T13:44:23.866Z,59.63
2018-04-23T13:49:19.743Z,60.30
2018-04-23T13:54:16.468Z,60.69
2018-04-23T13:59:17.217Z,59.63
2018-04-23T14:04:20.972Z,60.08
2018-04-23T14:09:21.349Z,60.85
2018-04-23T14:14:21.858Z,59.79
2018-04-23T14:19:27.168Z,58.15
2018-04-23T14:24:24.211Z,57.99
2018-04-23T14:29:20.236Z,57.32
2018-04-23T14:34:17.243Z,55.59
2018-04-23T14:39:13.944Z,56.23
2018-04-23T14:44:14.952Z,55.66
2018-04-23T14:49:10.195Z,56.71
2018-04-23T14:54:06.264Z,56.04
2018-04-23T14:59:06.999Z,57.48
2018-04-23T15:04:01.863Z,57.75
2018-04-23T15:08:58.152Z,57.17
2018-04-23T15:13:53.932Z,57.45
2018-04-23T15:18:49.752Z,57.36
2018-04-23T15:23:45.504Z,57.62
2018-04-23T15:28:45.765Z,59.44
2018-04-23T15:33:41.727Z,59.54
2018-04-23T15:38:38.712Z,61.08
2018-04-23T15:43:36.420Z,60.11
2018-04-23T15:48:35.999Z,60.21
2018-04-23T15:53:33.302Z,60.50
2018-04-23T15:58:32.740Z,60.40
2018-04-23T16:03:32.569Z,61.08
2018-04-23T16:08:28.575Z,61.27
2018-04-23T16:13:24.378Z,60.21
2018-04-23T16:18:21.107Z,61.36
2018-04-23T16:23:20.659Z,63.86
2018-04-23T16:28:15.886Z,64.82
2018-04-23T16:33:17.614Z,63.92
2018-04-23T16:38:12.487Z,65.33
2018-04-23T16:43:11.915Z,65.65
2018-04-23T16:48:12.292Z,66.49
2018-04-23T16:53:08.291Z,67.83
2018-04-23T16:58:08.917Z,66.58
2018-04-23T17:03:04.578Z,66.96
2018-04-23T17:08:00.458Z,67.22
2018-04-23T17:12:56.490Z,67.69
2018-04-23T17:17:53.489Z,65.97
2018-04-23T17:22:53.271Z,65.97
2018-04-23T17:27:52.258Z,66.55
2018-04-23T17:32:47.296Z,66.35
2018-04-23T17:37:44.094Z,68.85
2018-04-23T17:42:39.514Z,67.57
2018-04-23T17:47:35.319Z,68.72
2018-04-23T17:52:34.865Z,70.25
2018-04-23T17:57:33.576Z,72.45
2018-04-23T18:02:28.573Z,70.98
2018-04-23T18:07:24.578Z,72.61
2018-04-23T18:12:25.622Z,72.61
2018-04-23T18:17:20.673Z,73.86
2018-04-23T18:22:18.059Z,73.44
2018-04-23T18:27:17.549Z,74.58
2018-04-23T18:32:16.270Z,74.49
2018-04-23T18:37:12.185Z,75.26
2018-04-23T18:42:07.680Z,76.40
2018-04-23T18:47:07.208Z,74.74
2018-04-23T18:52:07.026Z,76.08
2018-04-23T18:57:01.496Z,77.61
2018-04-23T19:02:00.905Z,77.42
2018-04-23T19:06:57.240Z,77.67
2018-04-23T19:11:52.633Z,77.09
2018-04-23T19:16:52.955Z,79.29
2018-04-23T19:21:51.573Z,76.62
2018-04-23T19:26:47.358Z,77.57
2018-04-23T19:31:43.796Z,77.19
2018-04-23T19:36:39.701Z,78.43
2018-04-23T19:41:35.471Z,77.53
2018-04-23T19:46:31.424Z,77.53
2018-04-23T19:51:27.103Z,77.63
2018-04-23T19:56:27.774Z,78.78
2018-04-23T20:01:23.521Z,79.25
2018-04-23T20:06:23.900Z,80.98
2018-04-23T20:11:22.426Z,78.30
2018-04-23T20:16:21.767Z,80.30
2018-04-23T20:21:21.648Z,80.36
2018-04-23T20:26:17.067Z,81.32
2018-04-23T20:31:12.726Z,81.22
2018-04-23T20:36:09.342Z,82.56
2018-04-23T20:41:08.655Z,82.84
2018-04-23T20:46:03.609Z,83.04
2018-04-23T20:50:59.224Z,84.09
2018-04-23T20:55:55.199Z,82.81
2018-04-23T21:00:54.974Z,83.57
2018-04-23T21:05:49.877Z,85.58
2018-04-23T21:10:45.593Z,84.52
2018-04-23T21:15:42.411Z,85.58
2018-04-23T21:20:37.914Z,86.77
2018-04-23T21:25:34.891Z,87.15
2018-04-23T21:30:34.171Z,87.68
2018-04-23T21:40:35.862Z,88.44
2018-04-23T21:45:31.944Z,88.92
2018-04-23T21:50:31.305Z,91.93
2018-04-23T21:55:26.210Z,90.78
2018-04-23T22:00:23.195Z,90.59
2018-04-23T22:05:23.655Z,91.93
2018-04-23T22:10:19.014Z,92.41
2018-04-23T22:15:18.868Z,93.84
2018-04-23T22:20:13.727Z,93.74
2018-04-23T22:25:09.536Z,94.51
2018-04-23T22:30:05.117Z,95.98
2018-04-23T22:35:01.861Z,95.41
2018-04-23T22:39:58.414Z,95.75
2018-04-23T22:44:53.855Z,97.08
2018-04-23T22:49:49.723Z,96.13
2018-04-23T22:54:45.622Z,99.47
2018-04-23T22:59:41.772Z,97.47
2018-04-23T23:04:37.985Z,98.52
2018-04-23T23:09:33.916Z,96.61
2018-04-23T23:14:33.715Z,97.32
2018-04-23T23:19:29.790Z,95.98
2018-04-23T23:24:29.596Z,96.46
2018-04-23T23:29:25.610Z,96.17
2018-04-23T23:34:25.259Z,94.55
2018-04-23T23:39:20.262Z,94.55
2018-04-23T23:44:17.235Z,95.22
2018-04-23T23:49:13.722Z,95.65
2018-04-23T23:54:10.283Z,96.08
2018-04-23T23:59:05.649Z,98.32
